Airfield :
LOGIN :

Register | Disclaimer

   EN    FR    IT 

 










Legend :    VFR   Marginal VFR   IFR   Intensive IFR   Very Intensive IFR
Visi :
Ceiling :
>= 8 km
>= 3000ft
5 to 8 km
1000 to 3000 ft
1500m to 5 km
500 to 1000 ft
800 to 1500m
200 to 500 ft
< 800m
< 200 ft
Symbols :   Thunderstorms  Fog  Heavy snow  Heavy precipitations  Wind > 20 kt
SIGMETs :     Misc.  Thunderstorms  Icing  Turbulence  Mountain Waves  Volcanic Ashes






- Airport Elevation : 459 ft
- IATA code : CER


LFRC - Cherbourg / Maupertus

CURRENT METAR :
  • 111530Z AUTO 10009KT CAVOK 28/17 Q1013 NOSIG

EXPIRED METARs :
  • 111500Z AUTO 10009KT 060V130 CAVOK 28/17 Q1014 NOSIG
  • 111430Z AUTO 07009KT 040V110 CAVOK 28/17 Q1014 NOSIG
  • 111400Z AUTO 08008KT 040V110 CAVOK 28/17 Q1014 NOSIG
  • 111330Z AUTO 07008KT 020V110 CAVOK 29/16 Q1014 NOSIG
  • 111300Z AUTO 08009KT 050V120 CAVOK 29/16 Q1014 NOSIG

TAF TAF LFRC
Valid from the 11 at 15:00 until the 12 at 00:00 UTC


111400Z 1115/1124 05008KT CAVOK
PROB30
TEMPO 1118/1124 VRB20G35KT 3000 TSRAGR BKN060CB
BECMG 1122/1124 15010KT



MET'MAP, your aeronautical weather chart ! - Copyright ORBIFLY December 2007 - Disclaimer

ORBIFLY MET'MAP TEAM :

Programming & Development : Alexandra Zaïnal
Concept & original design : Baudouin d'Aumeries
Assistance for programming : Marc-Olivier Méhu
Technical & hardware support : Manuel Goepfert

Contact : metmap@orbifly.com




SOURCES & CREDITS :

   NOAA